createdAt,value
2019-04-25T00:01:46.612Z,3.20
2019-04-25T00:06:50.145Z,3.20
2019-04-25T00:11:52.717Z,3.37
2019-04-25T00:16:54.829Z,3.40
2019-04-25T00:22:02.741Z,3.23
2019-04-25T00:27:07.794Z,4.27
2019-04-25T00:32:11.615Z,3.70
2019-04-25T00:37:14.021Z,3.53
2019-04-25T00:42:16.122Z,4.13
2019-04-25T00:47:18.059Z,4.23
2019-04-25T00:52:21.093Z,4.67
2019-04-25T00:57:25.174Z,4.40
2019-04-25T01:02:34.396Z,5.40
2019-04-25T01:07:36.300Z,4.93
2019-04-25T01:12:38.189Z,5.00
2019-04-25T01:17:41.323Z,5.23
2019-04-25T01:22:44.098Z,5.77
2019-04-25T01:27:46.605Z,5.83
2019-04-25T01:32:48.904Z,5.10
2019-04-25T01:37:59.383Z,6.33
2019-04-25T01:43:09.559Z,6.57
2019-04-25T01:48:13.629Z,5.70
2019-04-25T01:53:15.978Z,6.50
2019-04-25T01:58:17.950Z,7.10
2019-04-25T02:03:21.394Z,7.80
2019-04-25T02:08:23.913Z,6.77
2019-04-25T02:13:26.301Z,7.50
2019-04-25T02:18:28.266Z,8.57
2019-04-25T02:23:32.007Z,7.30
2019-04-25T02:28:33.971Z,7.57
2019-04-25T02:33:35.782Z,7.27
2019-04-25T02:38:39.264Z,7.67
2019-04-25T02:43:41.292Z,6.80
2019-04-25T02:49:03.033Z,7.10
2019-04-25T02:54:08.238Z,7.33
2019-04-25T02:59:10.375Z,7.33
2019-04-25T03:04:14.402Z,7.00
2019-04-25T03:09:16.325Z,7.97
2019-04-25T03:14:18.392Z,7.50
2019-04-25T03:19:44.018Z,6.70
2019-04-25T03:24:46.099Z,7.40
2019-04-25T03:29:48.323Z,7.97
2019-04-25T03:34:50.586Z,7.30
2019-04-25T03:39:53.525Z,6.63
2019-04-25T03:44:55.544Z,7.40
2019-04-25T03:49:57.497Z,7.27
2019-04-25T03:54:59.456Z,5.83
2019-04-25T04:00:03.598Z,5.83
2019-04-25T04:05:09.617Z,6.83
2019-04-25T04:10:12.600Z,6.30
2019-04-25T04:15:16.476Z,6.40
2019-04-25T04:20:33.824Z,6.30
2019-04-25T04:25:37.643Z,6.20
2019-04-25T04:30:39.490Z,5.93
2019-04-25T04:35:41.711Z,6.00
2019-04-25T04:40:44.205Z,6.43
2019-04-25T04:45:46.624Z,5.57
2019-04-25T04:50:48.429Z,6.13
2019-04-25T04:55:50.486Z,5.47
2019-04-25T05:00:53.691Z,6.70
2019-04-25T05:06:06.483Z,4.90
2019-04-25T05:11:12.289Z,4.83
2019-04-25T05:16:17.833Z,6.17
2019-04-25T05:21:20.382Z,5.57
2019-04-25T05:26:24.880Z,5.47
2019-04-25T05:31:37.179Z,4.60
2019-04-25T05:36:39.291Z,5.00
2019-04-25T05:41:57.224Z,4.90
2019-04-25T05:46:59.259Z,5.03
2019-04-25T05:52:01.062Z,4.50
2019-04-25T05:57:03.693Z,4.97
2019-04-25T06:02:05.836Z,4.47
2019-04-25T06:07:08.176Z,4.50
2019-04-25T06:12:26.323Z,4.60
2019-04-25T06:17:48.216Z,4.73
2019-04-25T06:23:04.080Z,4.50
2019-04-25T06:28:09.258Z,5.00
2019-04-25T06:33:11.278Z,4.23
2019-04-25T06:38:16.845Z,4.60
2019-04-25T06:43:18.703Z,4.87
2019-04-25T06:48:45.586Z,4.40
2019-04-25T06:53:47.974Z,4.40
2019-04-25T06:58:53.250Z,3.80
2019-04-25T07:03:56.621Z,4.20
2019-04-25T07:08:58.700Z,4.23
2019-04-25T07:14:04.159Z,4.03
2019-04-25T07:19:06.452Z,4.30
2019-04-25T07:24:09.604Z,4.20
2019-04-25T07:29:24.783Z,3.90
2019-04-25T07:34:28.878Z,3.67
2019-04-25T07:39:31.920Z,3.90
2019-04-25T07:44:48.871Z,4.10
2019-04-25T07:49:39.371Z,4.40
2019-04-25T07:54:44.077Z,3.63
2019-04-25T07:59:47.454Z,4.10
2019-04-25T08:04:54.162Z,4.03
2019-04-25T08:09:56.643Z,3.50
2019-04-25T08:15:10.207Z,3.67
2019-04-25T08:20:15.209Z,4.60
2019-04-25T08:25:18.001Z,4.03
2019-04-25T08:30:20.225Z,3.70
2019-04-25T08:35:23.986Z,3.60
2019-04-25T08:40:28.902Z,3.53
2019-04-25T08:45:33.567Z,3.40
2019-04-25T08:51:01.263Z,3.73
2019-04-25T08:56:13.363Z,3.40
2019-04-25T09:01:25.557Z,2.87
2019-04-25T09:06:27.542Z,3.30
2019-04-25T09:11:32.235Z,3.10
2019-04-25T09:16:35.418Z,3.07
2019-04-25T09:21:37.849Z,2.90
2019-04-25T09:26:40.104Z,3.20
2019-04-25T09:31:46.023Z,2.90
2019-04-25T09:36:48.152Z,2.70
2019-04-25T09:41:50.306Z,2.97
2019-04-25T09:47:01.295Z,2.57
2019-04-25T09:52:15.629Z,2.87
2019-04-25T09:57:46.270Z,2.50
2019-04-25T10:02:55.456Z,2.50
2019-04-25T10:07:57.593Z,2.83
2019-04-25T10:12:59.627Z,2.30
2019-04-25T10:18:01.914Z,2.57
2019-04-25T10:23:05.036Z,2.67
2019-04-25T10:28:07.755Z,2.47
2019-04-25T10:33:09.827Z,2.43
2019-04-25T10:38:15.294Z,2.43
2019-04-25T10:43:17.295Z,2.37
2019-04-25T10:48:19.389Z,2.43
2019-04-25T10:53:25.043Z,2.60
2019-04-25T10:58:27.274Z,2.03
2019-04-25T11:03:56.923Z,2.40
2019-04-25T11:08:58.831Z,2.47
2019-04-25T11:14:00.900Z,2.17
2019-04-25T11:19:03.062Z,2.47
2019-04-25T11:24:05.244Z,2.20
2019-04-25T11:29:08.357Z,2.30
2019-04-25T11:34:11.520Z,2.40
2019-04-25T11:39:33.460Z,2.13
2019-04-25T11:44:35.268Z,2.93
2019-04-25T11:49:37.262Z,2.47
2019-04-25T11:54:39.425Z,2.57
2019-04-25T11:59:41.999Z,2.90
2019-04-25T12:04:46.769Z,2.30
2019-04-25T12:09:49.966Z,2.27
2019-04-25T12:14:54.015Z,2.57
2019-04-25T12:19:56.283Z,2.50
2019-04-25T12:25:00.751Z,2.07
2019-04-25T12:30:05.924Z,2.40
2019-04-25T12:35:08.098Z,2.50
2019-04-25T12:40:10.701Z,2.30
2019-04-25T12:45:20.409Z,2.50
2019-04-25T12:50:23.091Z,3.27
2019-04-25T12:55:26.591Z,2.70
2019-04-25T13:00:31.347Z,3.13
2019-04-25T13:05:36.764Z,3.00
2019-04-25T13:10:38.680Z,3.00
2019-04-25T13:15:40.641Z,2.60
2019-04-25T13:20:42.746Z,2.70
2019-04-25T13:25:44.898Z,2.77
2019-04-25T13:31:12.468Z,3.17
2019-04-25T13:36:13.943Z,3.00
2019-04-25T13:41:16.023Z,4.03
2019-04-25T13:46:20.611Z,3.37
2019-04-25T13:51:23.022Z,3.20
2019-04-25T13:56:27.425Z,2.73
2019-04-25T14:01:31.837Z,2.53
2019-04-25T14:06:41.405Z,2.97
2019-04-25T14:11:44.811Z,3.27
2019-04-25T14:17:18.769Z,4.07
2019-04-25T14:22:25.223Z,3.53
2019-04-25T14:27:30.225Z,3.37
2019-04-25T14:32:33.932Z,3.80
2019-04-25T14:37:39.604Z,3.37
2019-04-25T14:42:39.967Z,2.87
2019-04-25T14:47:42.122Z,2.67
2019-04-25T14:52:43.928Z,3.20
2019-04-25T14:57:45.961Z,2.67
2019-04-25T15:02:48.076Z,2.77
2019-04-25T15:07:50.268Z,2.83
2019-04-25T15:12:52.513Z,2.63
2019-04-25T15:17:57.034Z,2.30
2019-04-25T15:22:59.291Z,2.67
2019-04-25T15:28:03.248Z,2.20
2019-04-25T15:33:06.818Z,2.13
2019-04-25T15:38:13.114Z,2.50
2019-04-25T15:43:33.674Z,2.30
2019-04-25T15:48:36.111Z,2.20
2019-04-25T15:53:38.141Z,2.03
2019-04-25T15:58:41.696Z,1.70
2019-04-25T16:03:44.637Z,1.83
2019-04-25T16:08:47.360Z,2.00
2019-04-25T16:13:49.262Z,2.03
2019-04-25T16:18:51.357Z,1.90
2019-04-25T16:23:54.966Z,1.97
2019-04-25T16:28:56.890Z,1.83
2019-04-25T16:33:58.797Z,2.43
2019-04-25T16:39:03.561Z,2.47
2019-04-25T16:44:13.296Z,2.17
2019-04-25T16:49:15.254Z,2.07
2019-04-25T16:54:17.327Z,2.10
2019-04-25T16:59:20.538Z,2.00
2019-04-25T17:04:24.325Z,1.80
2019-04-25T17:09:26.246Z,2.20
2019-04-25T17:14:46.590Z,2.10
2019-04-25T17:20:17.073Z,2.00
2019-04-25T17:25:21.140Z,1.80
2019-04-25T17:30:23.286Z,1.80
2019-04-25T17:35:53.823Z,1.70
2019-04-25T17:40:56.039Z,1.73
2019-04-25T17:45:58.776Z,2.47
2019-04-25T17:51:03.041Z,1.97
2019-04-25T17:56:05.248Z,2.00
2019-04-25T18:01:09.228Z,2.00
2019-04-25T18:06:11.328Z,2.00
2019-04-25T18:11:13.264Z,2.20
2019-04-25T18:16:25.099Z,2.07
2019-04-25T18:21:27.108Z,2.33
2019-04-25T18:26:48.593Z,2.40
2019-04-25T18:31:50.639Z,2.60
2019-04-25T18:37:12.322Z,3.03
2019-04-25T18:42:31.103Z,2.63
2019-04-25T18:47:33.217Z,2.57
2019-04-25T18:52:53.738Z,2.73
2019-04-25T18:58:18.111Z,3.80
2019-04-25T19:03:43.636Z,3.00
2019-04-25T19:08:47.088Z,2.93
2019-04-25T19:13:51.694Z,3.50
2019-04-25T19:19:01.560Z,3.60
2019-04-25T19:24:05.554Z,4.77
2019-04-25T19:29:09.220Z,4.43
2019-04-25T19:34:12.450Z,5.40
2019-04-25T19:39:16.377Z,4.70
2019-04-25T19:44:21.893Z,4.83
2019-04-25T19:49:23.827Z,3.80
2019-04-25T19:54:25.813Z,2.90
2019-04-25T19:59:27.713Z,4.10
2019-04-25T20:04:53.742Z,2.13
2019-04-25T20:10:28.004Z,1.80
2019-04-25T20:15:30.246Z,1.50
2019-04-25T20:20:32.128Z,1.80
2019-04-25T20:25:34.154Z,1.60
2019-04-25T20:30:36.307Z,1.63
2019-04-25T20:35:38.281Z,2.17
2019-04-25T20:40:40.237Z,1.83
2019-04-25T20:45:42.294Z,1.80
2019-04-25T20:50:44.224Z,1.80
2019-04-25T20:55:46.490Z,2.00
2019-04-25T21:00:52.311Z,2.10
2019-04-25T21:05:57.229Z,1.90
2019-04-25T21:11:00.640Z,1.80
2019-04-25T21:16:21.198Z,2.20
2019-04-25T21:21:22.919Z,2.10
2019-04-25T21:26:25.326Z,1.90
2019-04-25T21:31:27.358Z,2.00
2019-04-25T21:36:29.388Z,2.30
2019-04-25T21:42:00.096Z,2.03
2019-04-25T21:47:06.855Z,3.23
2019-04-25T21:52:09.254Z,3.30
2019-04-25T21:57:15.186Z,3.80
2019-04-25T22:02:18.576Z,3.33
2019-04-25T22:07:23.723Z,3.27
2019-04-25T22:12:26.035Z,2.80
2019-04-25T22:17:30.882Z,3.20
2019-04-25T22:22:33.463Z,2.80
2019-04-25T22:27:36.939Z,2.70
2019-04-25T22:32:54.662Z,3.03
2019-04-25T22:37:57.613Z,2.97
2019-04-25T22:43:00.449Z,3.37
2019-04-25T22:48:02.844Z,3.00
2019-04-25T22:53:05.012Z,2.67
2019-04-25T22:58:08.389Z,2.33
2019-04-25T23:03:27.509Z,2.80
2019-04-25T23:08:29.518Z,2.50
2019-04-25T23:13:31.748Z,2.50
2019-04-25T23:18:36.153Z,2.60
2019-04-25T23:23:38.017Z,2.70
2019-04-25T23:28:41.379Z,2.87
2019-04-25T23:33:43.532Z,2.80
2019-04-25T23:38:46.190Z,2.83
2019-04-25T23:43:48.698Z,3.00
2019-04-25T23:48:50.695Z,3.00
2019-04-25T23:53:52.603Z,3.13
2019-04-25T23:58:54.519Z,3.07
